createdAt,value
2022-09-18T00:01:28.963Z,12.98
2022-09-18T00:03:58.156Z,14.38
2022-09-18T00:06:28.637Z,14.63
2022-09-18T00:08:58.230Z,15.10
2022-09-18T00:11:28.249Z,15.15
2022-09-18T00:13:55.222Z,14.27
2022-09-18T00:16:24.245Z,15.00
2022-09-18T00:18:51.345Z,13.02
2022-09-18T00:21:21.252Z,13.65
2022-09-18T00:23:48.435Z,14.77
2022-09-18T00:26:16.802Z,14.25
2022-09-18T00:28:44.072Z,15.18
2022-09-18T00:31:14.015Z,14.52
2022-09-18T00:33:41.470Z,14.80
2022-09-18T00:36:11.171Z,13.85
2022-09-18T00:38:38.538Z,14.02
2022-09-18T00:41:13.145Z,14.55
2022-09-18T00:43:40.404Z,14.57
2022-09-18T00:46:18.438Z,13.60
2022-09-18T00:48:48.781Z,13.90
2022-09-18T00:51:16.938Z,13.38
2022-09-18T00:53:52.091Z,14.18
2022-09-18T00:56:18.962Z,14.05
2022-09-18T00:58:46.158Z,13.50
2022-09-18T01:01:13.141Z,13.82
2022-09-18T01:03:40.056Z,13.43
2022-09-18T01:06:34.564Z,13.35
2022-09-18T01:09:28.294Z,13.98
2022-09-18T01:12:53.739Z,12.85
2022-09-18T01:15:29.448Z,13.30
2022-09-18T01:18:01.954Z,13.35
2022-09-18T01:20:34.926Z,13.48
2022-09-18T01:23:32.536Z,14.48
2022-09-18T01:26:37.520Z,13.77
2022-09-18T01:29:16.426Z,14.50
2022-09-18T01:32:11.325Z,14.40
2022-09-18T01:35:14.209Z,14.70
2022-09-18T01:38:08.194Z,14.25
2022-09-18T01:41:14.878Z,15.10
2022-09-18T01:43:44.148Z,15.00
2022-09-18T01:46:16.479Z,15.10
2022-09-18T01:48:52.413Z,15.02
2022-09-18T01:51:28.481Z,14.48
2022-09-18T01:54:04.179Z,14.65
2022-09-18T01:56:36.626Z,14.88
2022-09-18T01:59:09.608Z,14.52
2022-09-18T02:01:38.794Z,14.18
2022-09-18T02:04:13.104Z,13.93
2022-09-18T02:06:47.478Z,14.85
2022-09-18T02:09:14.517Z,13.15
2022-09-18T02:11:44.682Z,13.63
2022-09-18T02:14:23.885Z,13.65
2022-09-18T02:17:01.037Z,12.50
2022-09-18T02:19:36.704Z,13.38
2022-09-18T02:22:08.396Z,13.23
2022-09-18T02:24:37.916Z,13.57
2022-09-18T02:27:08.564Z,12.45
2022-09-18T02:29:36.483Z,12.00
2022-09-18T02:32:03.656Z,12.63
2022-09-18T02:34:32.613Z,12.73
2022-09-18T02:37:07.923Z,12.50
2022-09-18T02:39:40.680Z,11.93
2022-09-18T02:42:51.211Z,12.40
2022-09-18T02:45:47.696Z,12.90
2022-09-18T02:48:27.915Z,11.65
2022-09-18T02:51:22.619Z,11.90
2022-09-18T02:54:25.118Z,11.00
2022-09-18T02:56:55.004Z,12.13
2022-09-18T02:59:29.328Z,12.02
2022-09-18T03:01:58.811Z,11.38
2022-09-18T03:04:27.992Z,11.98
2022-09-18T03:06:55.493Z,12.02
2022-09-18T03:09:22.498Z,12.13
2022-09-18T03:11:50.323Z,11.90
2022-09-18T03:14:17.545Z,11.75
2022-09-18T03:16:44.377Z,12.57
2022-09-18T03:19:12.148Z,12.40
2022-09-18T03:21:39.403Z,13.77
2022-09-18T03:24:06.415Z,12.20
2022-09-18T03:26:33.412Z,12.45
2022-09-18T03:29:00.293Z,12.52
2022-09-18T03:31:27.270Z,13.23
2022-09-18T03:33:54.180Z,14.30
2022-09-18T03:36:21.031Z,14.18
2022-09-18T03:38:47.877Z,13.23
2022-09-18T03:41:14.750Z,12.90
2022-09-18T03:43:42.012Z,17.15
2022-09-18T03:46:08.985Z,16.00
2022-09-18T03:48:35.856Z,13.50
2022-09-18T03:51:02.777Z,14.32
2022-09-18T03:53:29.584Z,17.35
2022-09-18T03:55:56.497Z,13.90
2022-09-18T03:58:23.404Z,14.80
2022-09-18T04:00:50.674Z,16.35
2022-09-18T04:03:17.607Z,17.52
2022-09-18T04:05:44.731Z,14.25
2022-09-18T04:08:11.556Z,15.68
2022-09-18T04:10:38.418Z,15.85
2022-09-18T04:13:05.299Z,15.40
2022-09-18T04:15:32.237Z,19.42
2022-09-18T04:17:59.066Z,16.55
2022-09-18T04:20:26.062Z,16.75
2022-09-18T04:22:52.916Z,18.60
2022-09-18T04:25:19.733Z,15.25
2022-09-18T04:27:47.060Z,17.83
2022-09-18T04:30:14.496Z,16.85
2022-09-18T04:32:43.662Z,17.35
2022-09-18T04:35:10.621Z,17.13
2022-09-18T04:37:37.728Z,16.95
2022-09-18T04:40:06.543Z,16.85
2022-09-18T04:42:33.542Z,16.25
2022-09-18T04:45:00.367Z,15.75
2022-09-18T04:47:27.212Z,16.42
2022-09-18T04:49:54.128Z,17.13
2022-09-18T04:52:21.382Z,15.20
2022-09-18T04:54:48.226Z,15.38
2022-09-18T04:57:15.090Z,15.35
2022-09-18T04:59:41.947Z,16.80
2022-09-18T05:02:08.972Z,15.60
2022-09-18T05:04:36.138Z,13.80
2022-09-18T05:07:05.043Z,12.70
2022-09-18T05:09:32.046Z,11.88
2022-09-18T05:11:59.184Z,12.38
2022-09-18T05:14:26.055Z,11.93
2022-09-18T05:16:52.960Z,12.18
2022-09-18T05:19:19.982Z,11.30
2022-09-18T05:21:50.389Z,12.18
2022-09-18T05:24:17.919Z,12.82
2022-09-18T05:26:45.385Z,12.95
2022-09-18T05:29:12.420Z,12.77
2022-09-18T05:31:39.658Z,12.68
2022-09-18T05:34:06.579Z,12.80
2022-09-18T05:36:33.535Z,13.77
2022-09-18T05:39:00.662Z,13.43
2022-09-18T05:41:27.620Z,12.77
2022-09-18T05:43:54.724Z,12.05
2022-09-18T05:46:21.843Z,11.65
2022-09-18T05:48:50.076Z,9.98
2022-09-18T05:51:17.265Z,10.23
2022-09-18T05:53:48.409Z,9.98
2022-09-18T05:56:16.541Z,9.88
2022-09-18T05:58:43.551Z,11.27
2022-09-18T06:01:10.467Z,10.48
2022-09-18T06:03:37.317Z,11.18
2022-09-18T06:06:04.471Z,12.68
2022-09-18T06:08:31.317Z,12.05
2022-09-18T06:11:01.837Z,17.35
2022-09-18T06:13:28.667Z,15.70
2022-09-18T06:15:57.473Z,14.15
2022-09-18T06:18:25.550Z,13.40
2022-09-18T06:20:55.244Z,13.25
2022-09-18T06:23:24.174Z,13.07
2022-09-18T06:26:02.491Z,13.77
2022-09-18T06:28:30.937Z,16.30
2022-09-18T06:30:58.941Z,14.98
2022-09-18T06:33:25.927Z,16.50
2022-09-18T06:35:52.820Z,17.10
2022-09-18T06:38:19.654Z,16.45
2022-09-18T06:40:51.442Z,16.80
2022-09-18T06:43:19.513Z,16.95
2022-09-18T06:45:57.130Z,19.50
2022-09-18T06:48:25.071Z,19.02
2022-09-18T06:50:56.961Z,18.42
2022-09-18T06:53:25.021Z,20.58
2022-09-18T06:55:51.977Z,20.05
2022-09-18T06:58:19.939Z,36.65
2022-09-18T07:00:47.212Z,22.00
2022-09-18T07:03:14.342Z,28.20
2022-09-18T07:05:47.126Z,20.90
2022-09-18T07:08:14.427Z,21.70
2022-09-18T07:10:41.341Z,19.02
2022-09-18T07:13:08.945Z,19.83
2022-09-18T07:15:35.834Z,17.40
2022-09-18T07:18:04.984Z,17.02
2022-09-18T07:20:32.510Z,18.67
2022-09-18T07:23:01.240Z,18.10
2022-09-18T07:25:29.653Z,17.65
2022-09-18T07:28:01.891Z,17.92
2022-09-18T07:30:29.170Z,16.58
2022-09-18T07:32:56.076Z,16.95
2022-09-18T07:35:23.059Z,15.75
2022-09-18T07:37:49.884Z,16.40
2022-09-18T07:40:16.936Z,15.38
2022-09-18T07:42:43.885Z,14.60
2022-09-18T07:45:10.797Z,14.70
2022-09-18T07:47:37.709Z,14.52
2022-09-18T07:50:04.858Z,13.82
2022-09-18T07:52:32.082Z,13.68
2022-09-18T07:54:59.222Z,13.43
2022-09-18T07:57:26.239Z,13.43
2022-09-18T07:59:53.644Z,12.77
2022-09-18T08:02:20.592Z,13.32
2022-09-18T08:04:47.557Z,28.98
2022-09-18T08:07:14.475Z,34.35
2022-09-18T08:09:41.792Z,15.50
2022-09-18T08:12:08.731Z,14.85
2022-09-18T08:14:35.591Z,14.68
2022-09-18T08:17:03.987Z,11.75
2022-09-18T08:19:31.165Z,10.00
2022-09-18T08:21:58.431Z,13.77
2022-09-18T08:24:25.289Z,10.27
2022-09-18T08:26:53.243Z,12.15
2022-09-18T08:29:20.488Z,10.68
2022-09-18T08:31:47.984Z,9.27
2022-09-18T08:34:15.082Z,9.20
2022-09-18T08:36:41.976Z,9.48
2022-09-18T08:39:08.884Z,9.13
2022-09-18T08:42:13.894Z,10.18
2022-09-18T08:44:55.150Z,9.98
2022-09-18T08:47:27.898Z,8.60
2022-09-18T08:50:05.535Z,8.57
2022-09-18T08:52:38.230Z,9.15
2022-09-18T08:55:27.391Z,8.40
2022-09-18T08:58:07.842Z,9.13
2022-09-18T09:00:42.711Z,5.35
2022-09-18T09:03:29.829Z,4.90
2022-09-18T09:06:07.033Z,5.03
2022-09-18T09:08:54.735Z,4.90
2022-09-18T09:11:40.520Z,5.25
2022-09-18T09:14:30.259Z,4.03
2022-09-18T09:17:34.869Z,3.83
2022-09-18T09:20:16.718Z,3.65
2022-09-18T09:23:15.775Z,20.92
2022-09-18T09:26:13.468Z,3.83
2022-09-18T09:28:52.900Z,4.18
2022-09-18T09:31:27.389Z,4.30
2022-09-18T09:34:35.606Z,3.90
2022-09-18T09:37:06.556Z,4.28
2022-09-18T09:39:51.223Z,4.05
2022-09-18T09:42:34.415Z,4.35
2022-09-18T09:45:25.210Z,3.90
2022-09-18T09:48:15.489Z,4.10
2022-09-18T09:51:17.689Z,4.60
2022-09-18T09:53:45.010Z,4.38
2022-09-18T09:56:37.933Z,4.85
2022-09-18T09:59:39.031Z,3.95
2022-09-18T10:02:14.746Z,3.67
2022-09-18T10:04:51.004Z,3.75
2022-09-18T10:07:30.627Z,24.92
2022-09-18T10:10:03.250Z,3.53
2022-09-18T10:12:53.324Z,4.15
2022-09-18T10:15:36.163Z,4.25
2022-09-18T10:18:07.724Z,3.45
2022-09-18T10:20:36.706Z,3.25
2022-09-18T10:23:13.574Z,3.47
2022-09-18T10:25:50.098Z,3.30
2022-09-18T10:28:17.135Z,3.75
2022-09-18T10:31:03.991Z,4.28
2022-09-18T10:33:33.890Z,3.50
2022-09-18T10:36:16.744Z,3.28
2022-09-18T10:38:43.612Z,3.70
2022-09-18T10:41:33.671Z,3.88
2022-09-18T10:44:12.730Z,3.33
2022-09-18T10:46:50.874Z,3.90
2022-09-18T10:49:22.865Z,3.20
2022-09-18T10:52:23.365Z,3.65
2022-09-18T10:55:05.429Z,3.78
2022-09-18T10:57:38.095Z,4.32
2022-09-18T11:00:25.450Z,4.70
2022-09-18T11:02:55.446Z,3.78
2022-09-18T11:05:31.536Z,3.38
2022-09-18T11:08:00.878Z,2.17
2022-09-18T11:10:29.830Z,2.60
2022-09-18T11:12:59.086Z,2.70
2022-09-18T11:15:29.670Z,2.67
2022-09-18T11:17:59.216Z,3.40
2022-09-18T11:20:39.223Z,3.17
2022-09-18T11:23:21.307Z,2.78
2022-09-18T11:25:48.658Z,2.70
2022-09-18T11:28:42.627Z,2.60
2022-09-18T11:31:19.330Z,2.75
2022-09-18T11:33:54.335Z,2.58
2022-09-18T11:36:27.538Z,3.22
2022-09-18T11:41:29.774Z,2.78
2022-09-18T11:44:07.217Z,2.30
2022-09-18T11:46:34.496Z,18.20
2022-09-18T11:49:19.531Z,2.40
2022-09-18T11:52:06.206Z,2.22
2022-09-18T11:55:00.007Z,2.10
2022-09-18T11:57:51.168Z,2.53
2022-09-18T12:00:22.945Z,2.30
2022-09-18T12:02:49.779Z,1.75
2022-09-18T12:05:29.153Z,2.00
2022-09-18T12:08:35.297Z,1.80
2022-09-18T12:11:39.616Z,1.98
2022-09-18T12:14:51.562Z,2.17
2022-09-18T12:17:24.535Z,2.40
2022-09-18T12:19:56.814Z,2.53
2022-09-18T12:22:56.742Z,2.10
2022-09-18T12:25:51.192Z,2.08
2022-09-18T12:28:32.666Z,2.13
2022-09-18T12:31:18.316Z,1.70
2022-09-18T12:34:01.427Z,2.00
2022-09-18T12:36:49.473Z,2.25
2022-09-18T12:39:29.095Z,5.40
2022-09-18T12:42:01.750Z,3.97
2022-09-18T12:44:46.885Z,2.40
2022-09-18T12:47:36.367Z,2.10
2022-09-18T12:50:12.009Z,2.10
2022-09-18T12:53:06.541Z,2.20
2022-09-18T12:55:41.298Z,2.10
2022-09-18T12:58:29.444Z,2.80
2022-09-18T13:01:02.262Z,2.75
2022-09-18T13:03:36.945Z,2.45
2022-09-18T13:06:14.134Z,2.70
2022-09-18T13:08:54.485Z,3.20
2022-09-18T13:11:21.720Z,3.28
2022-09-18T13:13:48.982Z,3.42
2022-09-18T13:16:35.056Z,3.80
2022-09-18T13:19:18.218Z,3.15
2022-09-18T13:21:46.207Z,5.50
2022-09-18T13:24:17.983Z,10.32
2022-09-18T13:26:47.835Z,10.25
2022-09-18T13:30:03.099Z,10.10
2022-09-18T13:32:37.155Z,3.92
2022-09-18T13:35:13.517Z,4.05
2022-09-18T13:37:42.651Z,5.63
2022-09-18T13:40:34.204Z,4.15
2022-09-18T13:43:29.979Z,3.65
2022-09-18T13:46:00.219Z,3.03
2022-09-18T13:48:42.510Z,3.60
2022-09-18T13:51:23.439Z,3.67
2022-09-18T13:54:21.797Z,3.60
2022-09-18T13:57:17.253Z,3.42
2022-09-18T13:59:55.725Z,3.28
2022-09-18T14:02:29.868Z,3.20
2022-09-18T14:05:03.240Z,2.88
2022-09-18T14:07:32.997Z,2.72
2022-09-18T14:10:05.717Z,3.08
2022-09-18T14:12:35.227Z,2.70
2022-09-18T14:15:22.966Z,2.40
2022-09-18T14:18:14.593Z,2.60
2022-09-18T14:20:51.904Z,2.45
2022-09-18T14:23:41.686Z,2.30
2022-09-18T14:26:32.587Z,2.40
2022-09-18T14:29:17.807Z,2.45
2022-09-18T14:31:44.688Z,2.60
2022-09-18T14:34:19.318Z,2.50
2022-09-18T14:36:53.405Z,3.78
2022-09-18T14:39:30.362Z,2.58
2022-09-18T14:42:02.244Z,2.85
2022-09-18T14:44:30.572Z,2.40
2022-09-18T14:47:05.766Z,2.60
2022-09-18T14:49:42.260Z,2.80
2022-09-18T14:52:24.638Z,2.53
2022-09-18T14:54:54.436Z,2.65
2022-09-18T14:57:26.463Z,2.53
2022-09-18T14:59:58.857Z,2.33
2022-09-18T15:02:38.068Z,2.67
2022-09-18T15:05:11.974Z,3.00
2022-09-18T15:07:40.244Z,2.22
2022-09-18T15:10:09.511Z,2.65
2022-09-18T15:12:37.188Z,2.47
2022-09-18T15:15:28.135Z,2.67
2022-09-18T15:17:55.460Z,3.55
2022-09-18T15:20:23.487Z,2.75
2022-09-18T15:22:51.823Z,2.85
2022-09-18T15:25:23.659Z,2.75
2022-09-18T15:27:51.884Z,2.70
2022-09-18T15:30:21.301Z,2.70
2022-09-18T15:32:59.928Z,2.70
2022-09-18T15:35:30.146Z,2.42
2022-09-18T15:38:03.042Z,2.70
2022-09-18T15:40:34.339Z,5.10
2022-09-18T15:43:04.416Z,2.15
2022-09-18T15:45:35.731Z,2.88
2022-09-18T15:48:34.099Z,2.42
2022-09-18T15:51:24.391Z,2.60
2022-09-18T15:54:01.987Z,2.63
2022-09-18T15:56:31.356Z,3.00
2022-09-18T15:58:59.659Z,2.75
2022-09-18T16:01:31.661Z,2.70
2022-09-18T16:04:25.987Z,2.28
2022-09-18T16:07:01.550Z,2.65
2022-09-18T16:09:44.036Z,2.25
2022-09-18T16:12:29.384Z,2.83
2022-09-18T16:14:58.991Z,2.70
2022-09-18T16:17:46.099Z,2.70
2022-09-18T16:20:42.494Z,2.70
2022-09-18T16:23:47.701Z,2.95
2022-09-18T16:26:24.959Z,3.30
2022-09-18T16:29:19.457Z,3.55
2022-09-18T16:31:47.212Z,3.13
2022-09-18T16:34:27.845Z,3.33
2022-09-18T16:36:55.701Z,4.28
2022-09-18T16:39:25.086Z,4.18
2022-09-18T16:41:53.042Z,4.28
2022-09-18T16:44:20.178Z,4.43
2022-09-18T16:47:00.206Z,4.18
2022-09-18T16:49:31.298Z,3.78
2022-09-18T16:51:58.433Z,4.07
2022-09-18T16:54:25.818Z,3.92
2022-09-18T16:57:18.379Z,6.72
2022-09-18T16:59:45.734Z,3.33
2022-09-18T17:02:16.319Z,3.78
2022-09-18T17:04:43.234Z,3.72
2022-09-18T17:07:10.306Z,3.45
2022-09-18T17:09:37.274Z,2.80
2022-09-18T17:12:04.401Z,3.38
2022-09-18T17:14:31.509Z,2.97
2022-09-18T17:16:58.536Z,3.30
2022-09-18T17:19:25.544Z,3.63
2022-09-18T17:21:52.690Z,3.40
2022-09-18T17:24:25.581Z,3.50
2022-09-18T17:26:54.133Z,3.83
2022-09-18T17:29:24.585Z,3.45
2022-09-18T17:31:52.428Z,3.92
2022-09-18T17:34:21.099Z,4.10
2022-09-18T17:36:48.226Z,3.78
2022-09-18T17:39:17.045Z,4.45
2022-09-18T17:41:47.232Z,4.35
2022-09-18T17:44:15.044Z,5.10
2022-09-18T17:46:41.949Z,5.20
2022-09-18T17:49:08.878Z,4.72
2022-09-18T17:51:35.778Z,4.07
2022-09-18T17:54:04.293Z,4.32
2022-09-18T17:56:32.877Z,3.70
2022-09-18T17:59:07.407Z,3.47
2022-09-18T18:01:37.928Z,3.38
2022-09-18T18:04:06.089Z,9.18
2022-09-18T18:06:33.638Z,4.50
2022-09-18T18:09:00.953Z,3.45
2022-09-18T18:11:27.955Z,3.80
2022-09-18T18:13:56.341Z,4.00
2022-09-18T18:16:31.310Z,4.70
2022-09-18T18:19:04.338Z,3.83
2022-09-18T18:21:33.226Z,3.58
2022-09-18T18:24:06.890Z,3.42
2022-09-18T18:26:34.246Z,3.63
2022-09-18T18:29:02.433Z,3.47
2022-09-18T18:31:31.373Z,3.47
2022-09-18T18:33:58.761Z,4.15
2022-09-18T18:36:30.767Z,4.13
2022-09-18T18:39:00.241Z,4.35
2022-09-18T18:41:31.929Z,4.10
2022-09-18T18:44:01.977Z,4.22
2022-09-18T18:46:35.901Z,3.50
2022-09-18T18:49:08.041Z,4.03
2022-09-18T18:51:43.091Z,3.30
2022-09-18T18:54:10.668Z,4.47
2022-09-18T18:56:38.815Z,3.90
2022-09-18T18:59:08.814Z,4.85
2022-09-18T19:01:36.453Z,3.85
2022-09-18T19:04:06.983Z,3.95
2022-09-18T19:06:36.685Z,4.00
2022-09-18T19:09:10.844Z,4.93
2022-09-18T19:11:45.370Z,4.88
2022-09-18T19:14:17.029Z,4.65
2022-09-18T19:16:45.278Z,4.60
2022-09-18T19:19:13.680Z,6.97
2022-09-18T19:21:41.328Z,4.65
2022-09-18T19:24:10.051Z,3.97
2022-09-18T19:26:38.979Z,4.05
2022-09-18T19:29:09.100Z,3.75
2022-09-18T19:31:38.105Z,4.20
2022-09-18T19:34:06.082Z,4.20
2022-09-18T19:36:33.656Z,4.05
2022-09-18T19:39:04.520Z,4.38
2022-09-18T19:41:37.646Z,4.05
2022-09-18T19:44:07.950Z,4.45
2022-09-18T19:46:35.735Z,4.28
2022-09-18T19:49:02.843Z,4.22
2022-09-18T19:51:31.676Z,4.57
2022-09-18T19:53:58.577Z,4.90
2022-09-18T19:56:42.238Z,5.10
2022-09-18T19:59:10.456Z,4.40
2022-09-18T20:01:37.402Z,4.50
2022-09-18T20:04:04.809Z,14.43
2022-09-18T20:06:33.062Z,4.93
2022-09-18T20:09:00.654Z,4.57
2022-09-18T20:11:27.688Z,4.80
2022-09-18T20:13:55.401Z,4.00
2022-09-18T20:16:22.901Z,5.03
2022-09-18T20:18:50.143Z,4.35
2022-09-18T20:21:18.964Z,4.13
2022-09-18T20:23:47.698Z,3.70
2022-09-18T20:26:17.441Z,3.92
2022-09-18T20:28:45.066Z,18.83
2022-09-18T20:31:13.944Z,4.65
2022-09-18T20:33:41.389Z,3.30
2022-09-18T20:36:11.297Z,3.80
2022-09-18T20:38:41.359Z,3.97
2022-09-18T20:41:12.918Z,3.53
2022-09-18T20:43:41.819Z,3.78
2022-09-18T20:46:15.873Z,3.63
2022-09-18T20:48:47.507Z,4.07
2022-09-18T20:51:15.778Z,4.00
2022-09-18T20:53:45.737Z,3.63
2022-09-18T20:56:14.886Z,3.28
2022-09-18T20:58:42.486Z,3.60
2022-09-18T21:01:11.842Z,3.40
2022-09-18T21:03:41.117Z,3.58
2022-09-18T21:06:23.363Z,3.33
2022-09-18T21:08:53.654Z,3.70
2022-09-18T21:11:29.128Z,4.03
2022-09-18T21:13:57.896Z,3.80
2022-09-18T21:16:26.347Z,4.10
2022-09-18T21:18:56.827Z,6.97
2022-09-18T21:21:25.942Z,6.60
2022-09-18T21:23:53.346Z,3.65
2022-09-18T21:26:21.874Z,4.30
2022-09-18T21:29:00.023Z,3.60
2022-09-18T21:31:27.499Z,3.83
2022-09-18T21:33:54.542Z,3.70
2022-09-18T21:36:23.385Z,3.67
2022-09-18T21:38:51.083Z,4.15
2022-09-18T21:41:19.821Z,3.75
2022-09-18T21:43:50.616Z,3.58
2022-09-18T21:46:19.797Z,4.35
2022-09-18T21:48:48.385Z,4.13
2022-09-18T21:51:17.271Z,4.18
2022-09-18T21:53:44.704Z,8.60
2022-09-18T21:56:17.829Z,4.43
2022-09-18T21:58:46.190Z,4.32
2022-09-18T22:01:15.863Z,4.22
2022-09-18T22:03:50.723Z,4.38
2022-09-18T22:06:21.512Z,3.83
2022-09-18T22:08:51.193Z,4.28
2022-09-18T22:11:19.755Z,3.97
2022-09-18T22:13:47.287Z,4.38
2022-09-18T22:16:14.529Z,5.13
2022-09-18T22:18:41.501Z,5.00
2022-09-18T22:21:23.558Z,5.72
2022-09-18T22:23:53.250Z,4.35
2022-09-18T22:26:25.243Z,4.95
2022-09-18T22:28:56.662Z,5.35
2022-09-18T22:31:25.036Z,5.50
2022-09-18T22:33:57.626Z,4.53
2022-09-18T22:36:25.470Z,4.82
2022-09-18T22:38:53.405Z,4.97
2022-09-18T22:41:20.881Z,5.25
2022-09-18T22:43:47.798Z,5.45
2022-09-18T22:46:16.682Z,4.75
2022-09-18T22:48:44.144Z,4.75
2022-09-18T22:51:16.664Z,4.60
2022-09-18T22:53:51.980Z,5.93
2022-09-18T22:56:20.602Z,4.85
2022-09-18T22:58:47.920Z,4.30
2022-09-18T23:01:22.078Z,5.43
2022-09-18T23:03:52.427Z,4.97
2022-09-18T23:06:23.625Z,4.82
2022-09-18T23:08:53.841Z,4.93
2022-09-18T23:11:24.221Z,3.90
2022-09-18T23:14:00.259Z,3.95
2022-09-18T23:16:31.924Z,3.50
2022-09-18T23:19:04.867Z,3.92
2022-09-18T23:21:33.718Z,3.78
2022-09-18T23:24:05.916Z,4.15
2022-09-18T23:26:38.024Z,3.92
2022-09-18T23:29:07.193Z,3.33
2022-09-18T23:31:38.366Z,4.13
2022-09-18T23:34:10.658Z,3.28
2022-09-18T23:36:40.401Z,3.80
2022-09-18T23:39:13.075Z,3.38
2022-09-18T23:41:40.709Z,3.63
2022-09-18T23:44:09.787Z,3.28
2022-09-18T23:46:37.303Z,3.65
2022-09-18T23:49:06.648Z,3.00
2022-09-18T23:51:36.101Z,3.42
2022-09-18T23:54:05.795Z,3.40
2022-09-18T23:56:33.829Z,3.45
2022-09-18T23:59:04.162Z,3.55
